Time;durP1;ratioP1;P1;durP2;ratioP2;P2;SDS_P1;SDS_P2;PMS_P1;PMS_P2;Temp;Humidity;BMP_temperature;BMP_pressure;BME280_temperature;BME280_humidity;BME280_pressure;Samples;Min_cycle;Max_cycle;Signal;HPM_P1;HPM_P2
2022/07/11 00:01:09;;;;;;;;;;;;;;;20.75;46.97;99443.09;3153370;28;20007;-65
2022/07/11 00:02:41;;;;;;;;;;;;;;;20.75;46.94;99441.28;3146986;28;19934;-64
2022/07/11 00:04:13;;;;;;;;;;;;;;;20.74;47.15;99450.22;3142695;28;20185;-65
2022/07/11 00:05:44;;;;;;;;;;;;;;;20.70;47.34;99440.88;3142001;28;19928;-65
2022/07/11 00:07:17;;;;;;;;;;;;;;;20.73;47.35;99442.41;3141209;28;19936;-64
2022/07/11 00:08:48;;;;;;;;;;;;;;;20.73;47.46;99434.47;3143623;28;19928;-65
2022/07/11 00:10:20;;;;;;;;;;;;;;;20.71;47.54;99439.09;3146194;28;19928;-65
2022/07/11 00:11:51;;;;;;;;;;;;;;;20.71;47.22;99437.28;3146040;28;19986;-65
2022/07/11 00:13:22;;;;;;;;;;;;;;;20.70;47.37;99432.09;3146778;28;19928;-65
2022/07/11 00:14:54;;;;;;;;;;;;;;;20.68;47.45;99426.97;3150280;28;19928;-65
2022/07/11 00:16:27;;;;;;;;;;;;;;;20.66;47.56;99435.03;3148482;28;19940;-65
2022/07/11 00:17:58;;;;;;;;;;;;;;;20.61;47.90;99431.16;3145098;28;20393;-64
2022/07/11 00:19:30;;;;;;;;;;;;;;;20.61;47.82;99433.78;3144754;28;19928;-65
2022/07/11 00:21:00;;;;;;;;;;;;;;;20.57;47.97;99433.25;3144654;28;19954;-64
2022/07/11 00:22:32;;;;;;;;;;;;;;;20.54;48.11;99430.88;3143614;28;19928;-64
2022/07/11 00:24:07;;;;;;;;;;;;;;;20.52;48.29;99432.84;3143059;28;19936;-65
2022/07/11 00:25:38;;;;;;;;;;;;;;;20.52;48.05;99442.56;3142001;28;19939;-64
2022/07/11 00:27:10;;;;;;;;;;;;;;;20.50;48.25;99439.22;3146501;28;19929;-65
2022/07/11 00:28:42;;;;;;;;;;;;;;;20.46;48.10;99436.84;3143656;28;19928;-65
2022/07/11 00:30:14;;;;;;;;;;;;;;;20.43;48.43;99437.13;3143597;28;19928;-65
2022/07/11 00:31:47;;;;;;;;;;;;;;;20.42;48.23;99437.28;3141272;28;19929;-65
2022/07/11 00:33:18;;;;;;;;;;;;;;;20.35;48.50;99441.44;3147415;28;19935;-65
2022/07/11 00:34:50;;;;;;;;;;;;;;;20.30;48.45;99438.41;3147137;28;19997;-65
2022/07/11 00:36:21;;;;;;;;;;;;;;;20.28;48.59;99432.41;3149235;28;19927;-65
2022/07/11 00:37:53;;;;;;;;;;;;;;;20.25;48.49;99436.19;3145051;28;19928;-65
2022/07/11 00:39:24;;;;;;;;;;;;;;;20.21;48.76;99442.72;3144844;28;20045;-65
2022/07/11 00:40:55;;;;;;;;;;;;;;;20.22;48.45;99445.22;3149992;28;19951;-65
2022/07/11 00:42:27;;;;;;;;;;;;;;;20.21;48.60;99430.34;3143638;28;19929;-65
2022/07/11 00:43:59;;;;;;;;;;;;;;;20.21;48.56;99443.56;3151432;28;20453;-65
2022/07/11 00:45:30;;;;;;;;;;;;;;;20.22;48.69;99450.50;3143975;28;20366;-65
2022/07/11 00:47:04;;;;;;;;;;;;;;;20.21;48.29;99454.13;3149247;28;19935;-65
2022/07/11 00:48:36;;;;;;;;;;;;;;;20.24;48.43;99450.38;3144686;28;19979;-65
2022/07/11 00:50:08;;;;;;;;;;;;;;;20.25;48.27;99451.22;3144216;28;19939;-65
2022/07/11 00:51:39;;;;;;;;;;;;;;;20.25;48.27;99448.56;3142922;28;19943;-64
2022/07/11 00:53:10;;;;;;;;;;;;;;;20.18;48.27;99441.19;3143626;28;19928;-64
2022/07/11 00:54:42;;;;;;;;;;;;;;;20.26;48.26;99447.59;3148638;28;19950;-64
2022/07/11 00:56:12;;;;;;;;;;;;;;;20.27;48.18;99449.28;3144521;28;20322;-64
2022/07/11 00:57:44;;;;;;;;;;;;;;;20.28;48.16;99443.81;3149811;28;19928;-64
2022/07/11 00:59:18;;;;;;;;;;;;;;;20.28;48.12;99445.66;3147160;28;20324;-64
2022/07/11 01:00:50;;;;;;;;;;;;;;;20.28;47.84;99440.34;3147265;28;20487;-64
2022/07/11 01:02:24;;;;;;;;;;;;;;;20.28;48.19;99450.94;3148781;28;19978;-64
2022/07/11 01:03:55;;;;;;;;;;;;;;;20.28;48.09;99443.00;3141178;28;19939;-64
2022/07/11 01:05:27;;;;;;;;;;;;;;;20.28;47.98;99437.72;3140763;28;20386;-63
2022/07/11 01:06:58;;;;;;;;;;;;;;;20.29;48.03;99442.88;3154964;28;19931;-64
2022/07/11 01:08:31;;;;;;;;;;;;;;;20.30;47.94;99446.34;3145486;28;19928;-63
2022/07/11 01:10:03;;;;;;;;;;;;;;;20.29;48.07;99453.44;3147283;28;20338;-64
2022/07/11 01:11:34;;;;;;;;;;;;;;;20.29;48.26;99457.88;3147053;28;19932;-64
2022/07/11 01:13:07;;;;;;;;;;;;;;;20.25;48.07;99462.63;3149207;28;20111;-64
2022/07/11 01:14:38;;;;;;;;;;;;;;;20.26;48.24;99460.81;3146928;28;19928;-64
2022/07/11 01:16:09;;;;;;;;;;;;;;;20.24;48.33;99460.97;3148515;28;20464;-63
2022/07/11 01:17:42;;;;;;;;;;;;;;;20.21;48.35;99463.88;3147044;28;20354;-64
2022/07/11 01:19:14;;;;;;;;;;;;;;;20.18;48.38;99459.69;3147850;28;19928;-63
2022/07/11 01:20:46;;;;;;;;;;;;;;;20.17;48.21;99463.34;3143253;28;19943;-63
2022/07/11 01:22:19;;;;;;;;;;;;;;;20.18;48.48;99464.16;3141645;28;19940;-63
2022/07/11 01:23:51;;;;;;;;;;;;;;;20.17;48.46;99463.34;3141784;28;20445;-63
2022/07/11 01:25:34;;;;;;;;;;;;;;;20.17;48.58;99462.47;3144172;28;19974;-63
2022/07/11 01:27:06;;;;;;;;;;;;;;;20.15;48.49;99472.38;3140636;28;19928;-63
2022/07/11 01:28:38;;;;;;;;;;;;;;;20.11;48.48;99470.97;3136791;28;19932;-63
2022/07/11 01:30:10;;;;;;;;;;;;;;;20.08;48.57;99461.50;3136727;28;20453;-64
2022/07/11 01:31:42;;;;;;;;;;;;;;;20.09;48.78;99460.53;3143116;28;19978;-65
2022/07/11 01:33:12;;;;;;;;;;;;;;;20.08;48.97;99463.31;3142125;28;19928;-64
2022/07/11 01:34:44;;;;;;;;;;;;;;;20.05;48.84;99460.94;3141581;28;20475;-64
2022/07/11 01:36:16;;;;;;;;;;;;;;;19.99;48.97;99454.38;3143470;28;19976;-64
2022/07/11 01:37:47;;;;;;;;;;;;;;;20.02;49.05;99458.56;3141066;28;20235;-65
2022/07/11 01:39:20;;;;;;;;;;;;;;;19.99;49.07;99454.38;3143411;28;19928;-64
2022/07/11 01:40:51;;;;;;;;;;;;;;;19.97;49.03;99457.19;3149239;28;19929;-63
2022/07/11 01:42:23;;;;;;;;;;;;;;;19.94;49.18;99443.41;3154965;28;20028;-63
2022/07/11 01:43:54;;;;;;;;;;;;;;;19.91;49.29;99456.91;3147293;28;20423;-64
2022/07/11 01:45:25;;;;;;;;;;;;;;;19.85;49.53;99447.72;3145830;28;19932;-63
2022/07/11 01:46:57;;;;;;;;;;;;;;;19.82;49.65;99450.63;3149183;28;19928;-64
2022/07/11 01:48:28;;;;;;;;;;;;;;;19.76;49.79;99452.00;3155148;28;20419;-64
2022/07/11 01:49:59;;;;;;;;;;;;;;;19.73;49.88;99462.84;3145764;28;19928;-64
2022/07/11 01:51:31;;;;;;;;;;;;;;;19.71;50.01;99458.69;3154719;28;20018;-63
2022/07/11 01:53:03;;;;;;;;;;;;;;;19.68;50.31;99465.06;3147665;28;19928;-66
2022/07/11 01:54:36;;;;;;;;;;;;;;;19.67;50.29;99473.09;3147016;28;19938;-64
2022/07/11 01:56:07;;;;;;;;;;;;;;;19.65;50.34;99462.69;3152804;28;19993;-64
2022/07/11 01:57:38;;;;;;;;;;;;;;;19.63;50.34;99461.94;3148596;28;19936;-64
2022/07/11 01:59:10;;;;;;;;;;;;;;;19.61;50.31;99457.78;3147331;28;19928;-64
2022/07/11 02:00:40;;;;;;;;;;;;;;;19.59;50.34;99454.44;3150075;28;20150;-64
2022/07/11 02:02:12;;;;;;;;;;;;;;;19.57;50.42;99461.66;3147615;28;20409;-64
2022/07/11 02:03:44;;;;;;;;;;;;;;;19.55;50.62;99459.16;3149090;28;20460;-64
2022/07/11 02:05:14;;;;;;;;;;;;;;;19.54;50.65;99457.47;3144031;28;19938;-64
2022/07/11 02:06:46;;;;;;;;;;;;;;;19.54;50.60;99460.13;3160001;28;19929;-64
2022/07/11 02:08:17;;;;;;;;;;;;;;;19.57;50.71;99456.38;3154479;28;19932;-64
2022/07/11 02:09:50;;;;;;;;;;;;;;;19.57;50.55;99466.94;3148601;28;20401;-64
2022/07/11 02:11:22;;;;;;;;;;;;;;;19.57;50.59;99467.78;3147681;28;20739;-64
2022/07/11 02:12:52;;;;;;;;;;;;;;;19.57;50.69;99466.94;3147092;28;20372;-64
2022/07/11 02:14:24;;;;;;;;;;;;;;;19.56;50.73;99471.41;3146832;28;19928;-64
2022/07/11 02:15:56;;;;;;;;;;;;;;;19.56;50.71;99471.41;3145852;28;19949;-64
2022/07/11 02:17:26;;;;;;;;;;;;;;;19.56;50.68;99476.69;3145995;28;19936;-64
2022/07/11 02:18:58;;;;;;;;;;;;;;;19.55;50.57;99475.84;3144226;28;20023;-64
2022/07/11 02:20:29;;;;;;;;;;;;;;;19.55;50.76;99475.00;3143370;28;20382;-64
2022/07/11 02:22:05;;;;;;;;;;;;;;;19.53;50.77;99485.72;3152256;28;19928;-64
2022/07/11 02:23:37;;;;;;;;;;;;;;;19.52;50.87;99477.91;3144007;28;19935;-64
2022/07/11 02:25:10;;;;;;;;;;;;;;;19.52;50.86;99488.47;3143875;28;19928;-64
2022/07/11 02:26:41;;;;;;;;;;;;;;;19.52;50.81;99491.09;3146710;28;20005;-64
2022/07/11 02:28:13;;;;;;;;;;;;;;;19.52;50.90;99494.59;3143053;28;20007;-64
2022/07/11 02:29:44;;;;;;;;;;;;;;;19.51;51.07;99502.66;3148749;28;20042;-64
2022/07/11 02:31:15;;;;;;;;;;;;;;;19.50;50.97;99490.44;3147663;28;19928;-64
2022/07/11 02:32:46;;;;;;;;;;;;;;;19.51;51.06;99494.72;3146634;28;20015;-66
2022/07/11 02:34:18;;;;;;;;;;;;;;;19.51;51.00;99495.56;3146615;28;19935;-64
2022/07/11 02:35:50;;;;;;;;;;;;;;;19.50;51.11;99488.63;3151040;28;20187;-64
2022/07/11 02:37:22;;;;;;;;;;;;;;;19.52;51.01;99499.03;3148466;28;20308;-64
2022/07/11 02:38:53;;;;;;;;;;;;;;;19.52;51.01;99494.59;3146476;28;19935;-64
2022/07/11 02:40:27;;;;;;;;;;;;;;;19.51;50.89;99502.66;3151167;28;20046;-64
2022/07/11 02:41:58;;;;;;;;;;;;;;;19.52;51.16;99512.25;3151477;28;20345;-64
2022/07/11 02:43:29;;;;;;;;;;;;;;;19.53;50.94;99511.28;3145303;28;19950;-64
2022/07/11 02:45:01;;;;;;;;;;;;;;;19.54;50.89;99507.66;3144858;28;19993;-64
2022/07/11 02:46:33;;;;;;;;;;;;;;;19.55;50.78;99511.97;3145180;28;19989;-65
2022/07/11 02:48:05;;;;;;;;;;;;;;;19.54;50.78;99511.13;3154314;28;20030;-64
2022/07/11 02:49:36;;;;;;;;;;;;;;;19.54;50.73;99516.41;3153855;28;20369;-63
2022/07/11 02:51:08;;;;;;;;;;;;;;;19.55;50.88;99517.25;3151865;28;19935;-64
2022/07/11 02:52:40;;;;;;;;;;;;;;;19.54;50.76;99523.50;3144340;28;19928;-64
2022/07/11 02:54:11;;;;;;;;;;;;;;;19.54;50.90;99518.22;3144770;28;19928;-64
2022/07/11 02:55:45;;;;;;;;;;;;;;;19.53;50.85;99521.84;3144184;28;19928;-64
2022/07/11 02:57:16;;;;;;;;;;;;;;;19.50;50.78;99524.75;3143990;28;19971;-65
2022/07/11 02:58:47;;;;;;;;;;;;;;;19.45;51.11;99517.22;3143263;28;19928;-64
2022/07/11 03:00:18;;;;;;;;;;;;;;;19.41;51.08;99526.38;3143824;28;19936;-64
2022/07/11 03:01:50;;;;;;;;;;;;;;;19.37;51.32;99522.31;3149630;28;19935;-65
2022/07/11 03:03:22;;;;;;;;;;;;;;;19.36;51.57;99523.31;3143435;28;20368;-64
2022/07/11 03:04:53;;;;;;;;;;;;;;;19.32;51.51;99524.53;3148572;28;19928;-64
2022/07/11 03:06:25;;;;;;;;;;;;;;;19.31;51.67;99526.34;3154657;28;20306;-64
2022/07/11 03:07:56;;;;;;;;;;;;;;;19.29;51.44;99530.91;3151468;28;19928;-64
2022/07/11 03:09:27;;;;;;;;;;;;;;;19.29;51.43;99538.84;3148225;28;19936;-64
2022/07/11 03:11:00;;;;;;;;;;;;;;;19.27;51.55;99530.22;3146534;28;20028;-64
2022/07/11 03:12:32;;;;;;;;;;;;;;;19.25;51.56;99537.41;3146042;28;19950;-64
2022/07/11 03:14:02;;;;;;;;;;;;;;;19.24;51.62;99530.47;3145725;28;19928;-64
2022/07/11 03:15:34;;;;;;;;;;;;;;;19.23;51.55;99531.44;3153919;28;19935;-64
2022/07/11 03:17:04;;;;;;;;;;;;;;;19.24;51.51;99522.56;3143539;28;20046;-64
2022/07/11 03:18:36;;;;;;;;;;;;;;;19.25;51.40;99536.56;3150377;28;20829;-64
2022/07/11 03:20:08;;;;;;;;;;;;;;;19.23;51.22;99528.81;3144178;28;20401;-64
2022/07/11 03:21:40;;;;;;;;;;;;;;;19.23;51.24;99530.63;3142895;28;20538;-63
2022/07/11 03:23:11;;;;;;;;;;;;;;;19.21;51.24;99533.38;3139007;28;20730;-64
2022/07/11 03:24:42;;;;;;;;;;;;;;;19.21;51.27;99530.72;3138263;28;20288;-64
2022/07/11 03:26:15;;;;;;;;;;;;;;;19.21;51.24;99538.66;3140450;28;19982;-64
2022/07/11 03:27:47;;;;;;;;;;;;;;;19.22;51.17;99534.19;3142294;28;19932;-63
2022/07/11 03:29:19;;;;;;;;;;;;;;;19.24;51.01;99534.91;3141812;28;19939;-65
2022/07/11 03:30:49;;;;;;;;;;;;;;;19.26;50.85;99531.19;3142050;28;19929;-64
2022/07/11 03:32:22;;;;;;;;;;;;;;;19.27;51.07;99529.38;3143718;28;19928;-63
2022/07/11 03:33:53;;;;;;;;;;;;;;;19.29;50.90;99538.00;3141732;28;20240;-63
2022/07/11 03:35:43;;;;;;;;;;;;;;;19.30;50.73;99531.75;3142601;28;19928;-64
2022/07/11 03:37:14;;;;;;;;;;;;;;;19.31;50.60;99534.28;3142936;28;20414;-64
2022/07/11 03:38:45;;;;;;;;;;;;;;;19.32;50.76;99537.75;3141470;28;19990;-64
2022/07/11 03:40:16;;;;;;;;;;;;;;;19.31;50.58;99539.56;3144927;28;20000;-64
2022/07/11 03:41:49;;;;;;;;;;;;;;;19.32;50.57;99537.75;3144004;28;20557;-64
2022/07/11 03:43:21;;;;;;;;;;;;;;;19.32;50.62;99538.56;3140057;28;19928;-66
2022/07/11 03:44:53;;;;;;;;;;;;;;;19.33;50.53;99539.41;3144496;28;20452;-64
2022/07/11 03:46:25;;;;;;;;;;;;;;;19.33;50.49;99534.13;3143195;28;19928;-65
2022/07/11 03:47:56;;;;;;;;;;;;;;;19.36;50.74;99551.50;3136879;28;20274;-65
2022/07/11 03:49:28;;;;;;;;;;;;;;;19.37;50.40;99551.38;3140749;28;19940;-65
2022/07/11 03:50:59;;;;;;;;;;;;;;;19.38;50.46;99555.69;3139610;28;19932;-64
2022/07/11 03:52:32;;;;;;;;;;;;;;;19.39;50.28;99546.81;3143412;28;20409;-64
2022/07/11 03:54:03;;;;;;;;;;;;;;;19.42;50.13;99559.75;3139142;28;20058;-64
2022/07/11 03:55:37;;;;;;;;;;;;;;;19.44;50.15;99556.97;3137908;28;19928;-63
2022/07/11 03:57:10;;;;;;;;;;;;;;;19.47;49.97;99556.72;3137727;28;19936;-64
2022/07/11 03:58:42;;;;;;;;;;;;;;;19.47;49.90;99562.00;3137006;28;19927;-64
2022/07/11 04:00:14;;;;;;;;;;;;;;;19.49;49.87;99562.69;3142264;28;20491;-64
2022/07/11 04:01:46;;;;;;;;;;;;;;;19.52;49.65;99559.78;3142433;28;19932;-64
2022/07/11 04:03:18;;;;;;;;;;;;;;;19.55;49.74;99564.78;3142559;28;20396;-63
2022/07/11 04:04:49;;;;;;;;;;;;;;;19.57;49.64;99560.22;3146536;28;19936;-65
2022/07/11 04:06:21;;;;;;;;;;;;;;;19.60;49.57;99546.75;3148655;28;19931;-64
2022/07/11 04:07:52;;;;;;;;;;;;;;;19.62;49.59;99554.56;3146286;28;19929;-64
2022/07/11 04:09:24;;;;;;;;;;;;;;;19.65;49.73;99568.34;3140935;28;20006;-63
2022/07/11 04:10:56;;;;;;;;;;;;;;;19.65;49.54;99564.88;3141264;28;20278;-64
2022/07/11 04:12:29;;;;;;;;;;;;;;;19.68;49.29;99557.53;3140681;28;20388;-64
2022/07/11 04:14:01;;;;;;;;;;;;;;;19.70;49.48;99560.88;3140599;28;19947;-63
2022/07/11 04:15:31;;;;;;;;;;;;;;;19.75;49.53;99565.75;3138402;28;20089;-63
2022/07/11 04:17:03;;;;;;;;;;;;;;;19.73;49.32;99567.72;3137343;28;20539;-63
2022/07/11 04:18:35;;;;;;;;;;;;;;;19.75;49.49;99563.94;3138109;28;19955;-63
2022/07/11 04:20:07;;;;;;;;;;;;;;;19.74;49.14;99567.56;3138797;28;19928;-63
2022/07/11 04:21:39;;;;;;;;;;;;;;;19.74;49.34;99570.19;3140525;28;19928;-64
2022/07/11 04:23:11;;;;;;;;;;;;;;;19.76;49.32;99572.72;3141478;28;19928;-64
2022/07/11 04:24:42;;;;;;;;;;;;;;;19.76;49.09;99567.44;3141179;28;19928;-64
2022/07/11 04:26:14;;;;;;;;;;;;;;;19.77;49.18;99564.66;3146842;28;20674;-63
2022/07/11 04:27:47;;;;;;;;;;;;;;;19.79;49.15;99567.16;3150450;28;20411;-64
2022/07/11 04:29:19;;;;;;;;;;;;;;;19.77;49.22;99569.94;3151743;28;19928;-64
2022/07/11 04:30:50;;;;;;;;;;;;;;;19.77;49.18;99566.47;3145028;28;19929;-64
2022/07/11 04:32:21;;;;;;;;;;;;;;;19.78;49.39;99566.31;3144137;28;19951;-64
2022/07/11 04:33:52;;;;;;;;;;;;;;;19.82;49.30;99571.31;3145295;28;19928;-64
2022/07/11 04:35:24;;;;;;;;;;;;;;;19.84;49.50;99564.09;3145181;28;19943;-64
2022/07/11 04:36:56;;;;;;;;;;;;;;;19.80;49.25;99562.72;3145557;28;19989;-64
2022/07/11 04:38:28;;;;;;;;;;;;;;;19.87;49.19;99577.06;3143758;28;19929;-63
2022/07/11 04:39:59;;;;;;;;;;;;;;;19.86;48.96;99575.38;3145730;28;20345;-66
2022/07/11 04:41:30;;;;;;;;;;;;;;;19.88;49.03;99586.66;3151525;28;20065;-63
2022/07/11 04:43:04;;;;;;;;;;;;;;;19.89;49.00;99583.03;3150170;28;19989;-64
2022/07/11 04:44:36;;;;;;;;;;;;;;;19.90;49.08;99580.25;3142113;28;19980;-64
2022/07/11 04:46:07;;;;;;;;;;;;;;;19.93;49.33;99589.72;3141342;28;19928;-64
2022/07/11 04:47:39;;;;;;;;;;;;;;;19.94;49.11;99586.13;3150690;28;19937;-64
2022/07/11 04:49:10;;;;;;;;;;;;;;;19.97;49.04;99585.88;3147463;28;19928;-64
2022/07/11 04:50:44;;;;;;;;;;;;;;;19.99;49.22;99594.47;3143024;28;19928;-64
2022/07/11 04:52:15;;;;;;;;;;;;;;;20.00;49.20;99594.34;3143193;28;20031;-64
2022/07/11 04:53:47;;;;;;;;;;;;;;;20.03;48.92;99587.13;3143769;28;19951;-63
2022/07/11 04:55:19;;;;;;;;;;;;;;;20.07;49.27;99602.56;3144893;28;19928;-64
2022/07/11 04:56:49;;;;;;;;;;;;;;;20.09;48.89;99600.63;3148333;28;19928;-64
2022/07/11 04:58:22;;;;;;;;;;;;;;;20.11;48.96;99598.69;3143068;28;20102;-64
2022/07/11 04:59:54;;;;;;;;;;;;;;;20.13;48.81;99596.75;3153337;28;20350;-64
2022/07/11 05:01:26;;;;;;;;;;;;;;;20.16;48.94;99607.03;3147362;28;20478;-64
2022/07/11 05:02:57;;;;;;;;;;;;;;;20.17;48.81;99606.09;3147559;28;19932;-65
2022/07/11 05:04:28;;;;;;;;;;;;;;;20.21;48.59;99606.66;3148894;28;19928;-63
2022/07/11 05:06:00;;;;;;;;;;;;;;;20.23;48.65;99608.19;3145721;28;20080;-64
2022/07/11 05:07:31;;;;;;;;;;;;;;;20.28;48.57;99607.78;3144959;28;19928;-63
2022/07/11 05:09:04;;;;;;;;;;;;;;;20.33;48.66;99602.09;3144848;28;19928;-64
2022/07/11 05:10:36;;;;;;;;;;;;;;;20.36;48.77;99607.09;3147217;28;19969;-64
2022/07/11 05:12:08;;;;;;;;;;;;;;;20.41;48.44;99604.91;3148803;28;20317;-64
2022/07/11 05:13:41;;;;;;;;;;;;;;;20.42;47.94;99610.03;3141978;28;20402;-64
2022/07/11 05:15:12;;;;;;;;;;;;;;;20.42;48.09;99609.19;3145649;28;19935;-64
2022/07/11 05:16:43;;;;;;;;;;;;;;;20.43;48.19;99611.69;3152488;28;19928;-64
2022/07/11 05:18:14;;;;;;;;;;;;;;;20.44;48.02;99609.91;3152729;28;20707;-64
2022/07/11 05:19:46;;;;;;;;;;;;;;;20.46;47.93;99615.88;3152530;28;20399;-65
2022/07/11 05:21:22;;;;;;;;;;;;;;;20.49;47.97;99612.94;3152934;28;19928;-64
2022/07/11 05:22:53;;;;;;;;;;;;;;;20.49;47.87;99615.59;3150579;28;19928;-64
2022/07/11 05:24:25;;;;;;;;;;;;;;;20.52;47.76;99617.13;3154311;28;19928;-63
2022/07/11 05:25:56;;;;;;;;;;;;;;;20.56;48.00;99614.13;3152504;28;20412;-63
2022/07/11 05:27:28;;;;;;;;;;;;;;;20.60;47.70;99623.44;3151014;28;19934;-64
2022/07/11 05:29:00;;;;;;;;;;;;;;;20.66;47.77;99617.59;3152594;28;20336;-61
2022/07/11 05:30:31;;;;;;;;;;;;;;;20.71;47.46;99625.13;3150962;28;20041;-61
2022/07/11 05:32:03;;;;;;;;;;;;;;;20.76;47.48;99617.59;3142532;28;19928;-60
2022/07/11 05:33:34;;;;;;;;;;;;;;;20.80;47.20;99612.88;3141189;28;20357;-62
2022/07/11 05:35:06;;;;;;;;;;;;;;;20.84;47.04;99617.75;3152307;28;20319;-63
2022/07/11 05:36:39;;;;;;;;;;;;;;;20.85;46.93;99611.50;3152141;28;19935;-62
2022/07/11 05:38:11;;;;;;;;;;;;;;;20.88;47.19;99613.00;3153067;28;19936;-63
2022/07/11 05:39:43;;;;;;;;;;;;;;;20.92;46.92;99614.41;3150195;28;19934;-63
2022/07/11 05:41:14;;;;;;;;;;;;;;;20.93;46.75;99610.78;3152380;28;19944;-63
2022/07/11 05:42:46;;;;;;;;;;;;;;;20.93;46.67;99615.25;3152474;28;19928;-64
2022/07/11 05:44:18;;;;;;;;;;;;;;;20.95;46.56;99613.31;3152449;28;20002;-62
2022/07/11 05:45:50;;;;;;;;;;;;;;;20.98;46.43;99613.84;3151102;28;20019;-63
2022/07/11 05:47:21;;;;;;;;;;;;;;;21.01;46.35;99608.28;3152328;28;20324;-63
2022/07/11 05:48:53;;;;;;;;;;;;;;;21.08;46.50;99619.97;3152542;28;19928;-62
2022/07/11 05:50:25;;;;;;;;;;;;;;;21.10;46.41;99625.97;3140277;28;19929;-63
2022/07/11 05:51:56;;;;;;;;;;;;;;;21.16;46.25;99626.38;3146033;28;20417;-63
2022/07/11 05:53:28;;;;;;;;;;;;;;;21.18;45.89;99619.09;3143569;28;19928;-65
2022/07/11 05:55:00;;;;;;;;;;;;;;;21.20;45.96;99635.69;3149061;28;19932;-66
2022/07/11 05:56:30;;;;;;;;;;;;;;;21.20;45.82;99625.09;3142866;28;19954;-66
2022/07/11 05:58:02;;;;;;;;;;;;;;;21.22;45.75;99631.09;3148414;28;20011;-65
2022/07/11 05:59:37;;;;;;;;;;;;;;;21.27;45.98;99629.72;3152181;28;20031;-64
2022/07/11 06:01:09;;;;;;;;;;;;;;;21.32;45.68;99638.03;3150211;28;20744;-65
2022/07/11 06:02:42;;;;;;;;;;;;;;;21.36;45.81;99643.94;3152837;28;20022;-65
2022/07/11 06:04:14;;;;;;;;;;;;;;;21.41;45.42;99628.44;3152438;28;19928;-68
2022/07/11 06:05:45;;;;;;;;;;;;;;;21.47;45.22;99638.47;3152602;28;20392;-66
2022/07/11 06:09:05;;;;;;;;;;;;;;;21.62;45.32;99651.25;3150780;28;19928;-66
2022/07/11 06:10:36;;;;;;;;;;;;;;;21.66;44.93;99650.00;3145498;28;19928;-65
2022/07/11 06:12:08;;;;;;;;;;;;;;;21.69;44.89;99650.56;3145932;28;19934;-65
2022/07/11 06:13:40;;;;;;;;;;;;;;;21.77;44.61;99641.88;3145357;28;19928;-65
2022/07/11 06:15:13;;;;;;;;;;;;;;;21.82;44.51;99644.91;3144820;28;20052;-66
2022/07/11 06:16:45;;;;;;;;;;;;;;;21.88;44.38;99644.34;3144030;28;20238;-66
2022/07/11 06:18:16;;;;;;;;;;;;;;;21.92;44.21;99650.22;3150048;28;19982;-67
2022/07/11 06:19:48;;;;;;;;;;;;;;;21.95;44.32;99645.44;3152227;28;19977;-65
2022/07/11 06:21:20;;;;;;;;;;;;;;;22.01;44.03;99644.84;3151282;28;19932;-65
2022/07/11 06:22:53;;;;;;;;;;;;;;;22.08;43.88;99649.56;3145412;28;19978;-65
2022/07/11 06:24:24;;;;;;;;;;;;;;;22.13;43.28;99649.97;3149764;28;20436;-65
2022/07/11 06:25:56;;;;;;;;;;;;;;;22.21;43.17;99655.38;3145348;28;20131;-68
2022/07/11 06:27:28;;;;;;;;;;;;;;;22.24;42.95;99644.47;3145765;28;20004;-70
2022/07/11 06:28:59;;;;;;;;;;;;;;;22.29;43.00;99649.34;3144900;28;20018;-65
2022/07/11 06:30:31;;;;;;;;;;;;;;;22.34;42.93;99647.09;3152054;28;20005;-66
2022/07/11 06:32:03;;;;;;;;;;;;;;;22.39;43.21;99650.97;3144879;28;19932;-66
2022/07/11 06:33:35;;;;;;;;;;;;;;;22.47;42.72;99645.75;3153531;28;19971;-66
2022/07/11 06:35:07;;;;;;;;;;;;;;;22.54;41.62;99648.66;3149796;28;19928;-66
2022/07/11 06:36:39;;;;;;;;;;;;;;;22.58;41.31;99649.19;3145715;28;19928;-66
2022/07/11 06:38:09;;;;;;;;;;;;;;;22.62;41.20;99645.22;3146293;28;19939;-65
2022/07/11 06:39:41;;;;;;;;;;;;;;;22.64;40.34;99653.88;3147970;28;19928;-67
2022/07/11 06:41:12;;;;;;;;;;;;;;;22.71;40.22;99652.28;3151348;28;20518;-66
2022/07/11 06:42:44;;;;;;;;;;;;;;;22.74;40.27;99644.03;3147501;28;20258;-66
2022/07/11 06:44:16;;;;;;;;;;;;;;;22.78;40.24;99647.22;3147286;28;19993;-66
2022/07/11 06:45:49;;;;;;;;;;;;;;;22.81;40.09;99653.06;3145869;28;19935;-66
2022/07/11 06:47:21;;;;;;;;;;;;;;;22.88;40.29;99647.97;3149941;28;20385;-66
2022/07/11 06:48:52;;;;;;;;;;;;;;;22.97;40.43;99651.56;3153965;28;20074;-65
2022/07/11 06:50:23;;;;;;;;;;;;;;;23.03;40.19;99643.00;3153762;28;19927;-66
2022/07/11 06:51:54;;;;;;;;;;;;;;;23.11;39.94;99646.56;3150637;28;20004;-67
2022/07/11 06:53:26;;;;;;;;;;;;;;;23.16;39.38;99640.78;3152661;28;19940;-66
2022/07/11 06:54:58;;;;;;;;;;;;;;;23.21;39.10;99654.44;3142665;28;19932;-67
2022/07/11 06:56:29;;;;;;;;;;;;;;;23.24;39.01;99651.47;3148539;28;20018;-66
2022/07/11 06:58:01;;;;;;;;;;;;;;;23.26;38.73;99641.53;3149280;28;19928;-66
2022/07/11 06:59:33;;;;;;;;;;;;;;;23.28;38.44;99636.03;3147059;28;19928;-67
2022/07/11 07:01:07;;;;;;;;;;;;;;;23.32;38.65;99635.59;3155010;28;19928;-67
2022/07/11 07:02:38;;;;;;;;;;;;;;;23.32;38.85;99629.44;3144560;28;19928;-67
2022/07/11 07:04:10;;;;;;;;;;;;;;;23.41;38.42;99648.94;3144006;28;19994;-67
2022/07/11 07:05:42;;;;;;;;;;;;;;;23.41;38.54;99640.97;3144034;28;19951;-67
2022/07/11 07:07:14;;;;;;;;;;;;;;;23.42;38.65;99639.97;3143441;28;19989;-66
2022/07/11 07:08:48;;;;;;;;;;;;;;;23.45;38.31;99639.66;3143014;28;19935;-66
2022/07/11 07:10:20;;;;;;;;;;;;;;;23.41;38.52;99627.69;3142677;28;20396;-66
2022/07/11 07:11:52;;;;;;;;;;;;;;;23.51;39.00;99628.41;3141784;28;19928;-68
2022/07/11 07:13:25;;;;;;;;;;;;;;;23.59;38.95;99641.75;3146390;28;19928;-67
2022/07/11 07:14:57;;;;;;;;;;;;;;;23.67;38.56;99631.16;3151113;28;20420;-67
2022/07/11 07:16:30;;;;;;;;;;;;;;;23.78;38.65;99632.72;3154361;28;19988;-67
2022/07/11 07:18:01;;;;;;;;;;;;;;;23.89;38.73;99634.28;3153843;28;19928;-68
2022/07/11 07:19:33;;;;;;;;;;;;;;;23.92;37.99;99624.16;3153918;28;19927;-67
2022/07/11 07:21:05;;;;;;;;;;;;;;;23.97;38.21;99629.84;3152932;28;20436;-69
2022/07/11 07:22:36;;;;;;;;;;;;;;;24.02;37.71;99640.03;3154047;28;19981;-70
2022/07/11 07:24:08;;;;;;;;;;;;;;;24.01;37.20;99636.50;3154152;28;20044;-68
2022/07/11 07:25:39;;;;;;;;;;;;;;;24.02;37.47;99632.88;3154176;28;19935;-70
2022/07/11 07:27:11;;;;;;;;;;;;;;;24.02;37.61;99632.88;3145537;28;19935;-66
2022/07/11 07:28:43;;;;;;;;;;;;;;;24.07;37.68;99629.72;3148225;28;19928;-65
2022/07/11 07:30:14;;;;;;;;;;;;;;;24.11;37.32;99640.84;3147797;28;19929;-66
2022/07/11 07:31:47;;;;;;;;;;;;;;;24.14;37.24;99622.78;3143617;28;20011;-66
2022/07/11 07:33:19;;;;;;;;;;;;;;;24.21;37.59;99642.41;3139725;28;19928;-68
2022/07/11 07:34:50;;;;;;;;;;;;;;;24.28;37.54;99643.44;3139546;28;19951;-67
2022/07/11 07:36:22;;;;;;;;;;;;;;;24.35;37.40;99646.28;3139397;28;20380;-66
2022/07/11 07:37:54;;;;;;;;;;;;;;;24.40;37.03;99640.47;3138603;28;20046;-67
2022/07/11 07:39:26;;;;;;;;;;;;;;;24.46;37.19;99632.72;3136963;28;20035;-67
2022/07/11 07:40:57;;;;;;;;;;;;;;;24.52;37.31;99642.72;3142452;28;19978;-67
2022/07/11 07:42:29;;;;;;;;;;;;;;;24.57;36.85;99642.19;3144432;28;19929;-67
2022/07/11 07:44:01;;;;;;;;;;;;;;;24.55;36.40;99638.91;3143318;28;19929;-67
2022/07/11 07:45:33;;;;;;;;;;;;;;;24.56;36.27;99645.03;3142235;28;20510;-66
2022/07/11 07:47:07;;;;;;;;;;;;;;;24.60;36.43;99641.06;3146399;28;20457;-65
2022/07/11 07:48:39;;;;;;;;;;;;;;;24.68;36.62;99649.06;3151218;28;20479;-66
2022/07/11 07:50:11;;;;;;;;;;;;;;;24.75;36.13;99645.56;3142723;28;19967;-66
2022/07/11 07:51:42;;;;;;;;;;;;;;;24.80;35.92;99639.75;3142508;28;19928;-67
2022/07/11 07:53:14;;;;;;;;;;;;;;;24.88;36.07;99641.59;3141885;28;20321;-66
2022/07/11 07:54:46;;;;;;;;;;;;;;;24.96;36.29;99631.78;3151840;28;19978;-66
2022/07/11 07:56:17;;;;;;;;;;;;;;;25.07;35.71;99632.44;3148772;28;20012;-67
2022/07/11 07:57:48;;;;;;;;;;;;;;;25.16;35.67;99634.13;3147500;28;19929;-67
2022/07/11 07:59:24;;;;;;;;;;;;;;;25.23;35.42;99643.13;3146813;28;20006;-67
2022/07/11 08:02:48;;;;;;;;;;;;;;;25.37;34.83;99631.78;3148229;28;19948;-67